createdAt,value
2022-12-31T00:01:28.019Z,97793.69
2022-12-31T00:03:55.810Z,97792.22
2022-12-31T00:06:33.756Z,97794.69
2022-12-31T00:09:03.606Z,97776.97
2022-12-31T00:11:31.066Z,97782.75
2022-12-31T00:13:58.366Z,97782.63
2022-12-31T00:16:30.564Z,97778.97
2022-12-31T00:18:59.375Z,97797.09
2022-12-31T00:21:28.490Z,97794.47
2022-12-31T00:23:55.340Z,97786.03
2022-12-31T00:26:27.051Z,97802.38
2022-12-31T00:28:55.251Z,97824.91
2022-12-31T00:31:24.439Z,97830.84
2022-12-31T00:33:51.843Z,97840.94
2022-12-31T00:36:27.193Z,97851.31
2022-12-31T00:38:55.553Z,97841.53
2022-12-31T00:41:23.727Z,97841.44
2022-12-31T00:43:50.766Z,97853.66
2022-12-31T00:46:17.997Z,97870.72
2022-12-31T00:48:44.889Z,97878.94
2022-12-31T00:51:14.473Z,97874.00
2022-12-31T00:53:41.542Z,97875.16
2022-12-31T00:56:14.046Z,97900.09
2022-12-31T00:58:40.609Z,97878.94
2022-12-31T01:01:17.972Z,97910.19
2022-12-31T01:03:45.968Z,97907.50
2022-12-31T01:06:12.879Z,97915.22
2022-12-31T01:08:39.470Z,97925.84
2022-12-31T01:11:18.992Z,97935.28
2022-12-31T01:14:06.749Z,97946.22
2022-12-31T01:16:37.567Z,97949.59
2022-12-31T01:19:09.183Z,97937.75
2022-12-31T01:21:38.583Z,97922.47
2022-12-31T01:24:05.969Z,97911.59
2022-12-31T01:26:32.640Z,97923.31
2022-12-31T01:28:59.450Z,97927.50
2022-12-31T01:31:26.178Z,97922.50
2022-12-31T01:33:53.255Z,97911.03
2022-12-31T01:36:26.211Z,97908.09
2022-12-31T01:38:54.977Z,97898.28
2022-12-31T01:41:24.997Z,97883.22
2022-12-31T01:43:57.194Z,97877.06
2022-12-31T01:46:37.216Z,97875.28
2022-12-31T01:49:19.435Z,97866.38
2022-12-31T01:51:57.563Z,97869.31
2022-12-31T01:54:27.296Z,97863.19
2022-12-31T01:56:55.391Z,97869.03
2022-12-31T01:59:24.544Z,97862.38
2022-12-31T02:01:54.546Z,97855.41
2022-12-31T02:04:24.280Z,97865.91
2022-12-31T02:06:56.325Z,97870.34
2022-12-31T02:09:23.186Z,97876.06
2022-12-31T02:11:49.777Z,97887.13
2022-12-31T02:14:24.270Z,97885.69
2022-12-31T02:17:16.327Z,97863.13
2022-12-31T02:20:44.384Z,97874.41
2022-12-31T02:24:05.077Z,97885.59
2022-12-31T02:26:51.254Z,97891.53
2022-12-31T02:30:07.242Z,97881.88
2022-12-31T02:33:18.368Z,97888.75
2022-12-31T02:36:09.958Z,97894.63
2022-12-31T02:38:41.825Z,97894.84
2022-12-31T02:41:36.868Z,97888.25
2022-12-31T02:44:34.251Z,97896.16
2022-12-31T02:47:25.555Z,97895.38
2022-12-31T02:50:25.143Z,97901.28
2022-12-31T02:53:37.926Z,97890.59
2022-12-31T02:56:13.665Z,97893.09
2022-12-31T02:59:24.986Z,97904.94
2022-12-31T03:02:16.013Z,97893.09
2022-12-31T03:04:56.045Z,97885.13
2022-12-31T03:07:31.711Z,97879.28
2022-12-31T03:09:59.462Z,97882.72
2022-12-31T03:12:47.703Z,97882.44
2022-12-31T03:15:40.390Z,97895.69
2022-12-31T03:18:15.856Z,97904.13
2022-12-31T03:21:06.813Z,97899.53
2022-12-31T03:23:39.154Z,97910.34
2022-12-31T03:26:10.681Z,97913.50
2022-12-31T03:28:39.847Z,97915.97
2022-12-31T03:31:06.651Z,97933.13
2022-12-31T03:33:37.000Z,97938.44
2022-12-31T03:36:10.017Z,97950.00
2022-12-31T03:38:37.009Z,97969.09
2022-12-31T03:41:03.819Z,97953.09
2022-12-31T03:43:30.382Z,97963.66
2022-12-31T03:45:59.815Z,97971.03
2022-12-31T03:48:26.557Z,97958.22
2022-12-31T03:50:53.154Z,97942.72
2022-12-31T03:53:19.861Z,97934.84
2022-12-31T03:55:51.849Z,97932.94
2022-12-31T03:58:18.414Z,97921.88
2022-12-31T04:00:45.123Z,97912.28
2022-12-31T04:03:11.743Z,97907.53
2022-12-31T04:05:38.353Z,97915.94
2022-12-31T04:08:05.092Z,97910.53
2022-12-31T04:10:31.656Z,97908.25
2022-12-31T04:13:00.261Z,97909.94
2022-12-31T04:15:26.855Z,97901.38
2022-12-31T04:17:53.425Z,97903.53
2022-12-31T04:20:19.998Z,97913.09
2022-12-31T04:22:46.622Z,97906.38
2022-12-31T04:25:13.375Z,97911.56
2022-12-31T04:27:43.392Z,97906.56
2022-12-31T04:30:11.534Z,97903.22
2022-12-31T04:32:38.159Z,97914.72
2022-12-31T04:35:05.491Z,97919.09
2022-12-31T04:37:32.063Z,97931.84
2022-12-31T04:40:05.134Z,97928.31
2022-12-31T04:42:32.750Z,97935.88
2022-12-31T04:44:59.333Z,97907.84
2022-12-31T04:47:25.883Z,97928.75
2022-12-31T04:49:52.514Z,97934.47
2022-12-31T04:52:19.159Z,97918.28
2022-12-31T04:54:45.719Z,97938.59
2022-12-31T04:57:12.370Z,97930.75
2022-12-31T04:59:38.917Z,97932.56
2022-12-31T05:02:05.593Z,97939.75
2022-12-31T05:04:32.428Z,97948.25
2022-12-31T05:06:59.015Z,97952.94
2022-12-31T05:09:27.496Z,97955.84
2022-12-31T05:11:54.341Z,97956.28
2022-12-31T05:14:20.915Z,97949.66
2022-12-31T05:16:47.563Z,97955.81
2022-12-31T05:19:14.202Z,97965.91
2022-12-31T05:21:40.767Z,97959.53
2022-12-31T05:24:07.965Z,97968.22
2022-12-31T05:26:35.136Z,97961.13
2022-12-31T05:29:01.742Z,97963.34
2022-12-31T05:31:28.501Z,97959.38
2022-12-31T05:33:55.101Z,97964.28
2022-12-31T05:36:21.694Z,97971.38
2022-12-31T05:38:48.341Z,97973.50
2022-12-31T05:41:14.922Z,97989.25
2022-12-31T05:43:41.487Z,97990.50
2022-12-31T05:46:08.446Z,98010.19
2022-12-31T05:48:35.058Z,98009.53
2022-12-31T05:51:01.752Z,98000.06
2022-12-31T05:53:28.295Z,98009.69
2022-12-31T05:55:54.923Z,97991.25
2022-12-31T05:58:21.491Z,97981.59
2022-12-31T06:00:48.087Z,97984.06
2022-12-31T06:03:14.775Z,97989.41
2022-12-31T06:05:44.315Z,97979.31
2022-12-31T06:08:12.146Z,97976.59
2022-12-31T06:10:39.680Z,97985.91
2022-12-31T06:13:06.381Z,97973.31
2022-12-31T06:15:33.024Z,97983.91
2022-12-31T06:17:59.886Z,97998.47
2022-12-31T06:20:26.477Z,97993.75
2022-12-31T06:22:53.306Z,97996.38
2022-12-31T06:25:20.020Z,97988.75
2022-12-31T06:27:46.603Z,97992.88
2022-12-31T06:30:13.926Z,97998.81
2022-12-31T06:32:40.801Z,97981.50
2022-12-31T06:35:07.941Z,97989.13
2022-12-31T06:37:34.524Z,97995.94
2022-12-31T06:40:01.484Z,97999.38
2022-12-31T06:42:30.864Z,97996.53
2022-12-31T06:44:58.490Z,97987.44
2022-12-31T06:47:25.839Z,98004.72
2022-12-31T06:49:53.149Z,97995.44
2022-12-31T06:52:19.893Z,97990.28
2022-12-31T06:54:47.161Z,97997.47
2022-12-31T06:57:14.468Z,97995.78
2022-12-31T06:59:41.507Z,97998.72
2022-12-31T07:02:41.098Z,97998.03
2022-12-31T07:05:42.018Z,97999.75
2022-12-31T07:08:55.926Z,98010.81
2022-12-31T07:11:26.755Z,98016.59
2022-12-31T07:14:28.951Z,98022.88
2022-12-31T07:17:36.745Z,98026.78
2022-12-31T07:20:21.459Z,98032.94
2022-12-31T07:22:48.572Z,98024.28
2022-12-31T07:25:17.402Z,98033.72
2022-12-31T07:28:37.330Z,98038.84
2022-12-31T07:31:22.033Z,98064.59
2022-12-31T07:34:07.273Z,98069.56
2022-12-31T07:37:17.676Z,98061.44
2022-12-31T07:40:24.800Z,98084.69
2022-12-31T07:43:07.573Z,98074.22
2022-12-31T07:45:52.770Z,98070.59
2022-12-31T07:48:27.367Z,98070.69
2022-12-31T07:50:57.609Z,98068.25
2022-12-31T07:53:24.925Z,98075.25
2022-12-31T07:56:01.074Z,98062.88
2022-12-31T07:58:49.213Z,98064.25
2022-12-31T08:01:22.027Z,98084.50
2022-12-31T08:04:46.930Z,98080.97
2022-12-31T08:07:26.497Z,98072.56
2022-12-31T08:10:36.081Z,98069.84
2022-12-31T08:13:05.261Z,98067.50
2022-12-31T08:15:32.232Z,98074.19
2022-12-31T08:17:59.233Z,98069.19
2022-12-31T08:20:27.114Z,98079.09
2022-12-31T08:23:09.567Z,98078.94
2022-12-31T08:26:04.284Z,98079.22
2022-12-31T08:29:04.778Z,98069.53
2022-12-31T08:32:02.776Z,98074.66
2022-12-31T08:35:06.103Z,98088.41
2022-12-31T08:38:01.596Z,98096.97
2022-12-31T08:41:06.343Z,98097.75
2022-12-31T08:44:22.602Z,98086.09
2022-12-31T08:47:15.557Z,98093.34
2022-12-31T08:49:42.508Z,98091.50
2022-12-31T08:52:24.503Z,98090.25
2022-12-31T08:54:51.543Z,98105.50
2022-12-31T08:58:00.847Z,98103.22
2022-12-31T09:00:52.987Z,98107.81
2022-12-31T09:04:06.138Z,98089.81
2022-12-31T09:07:03.278Z,98097.63
2022-12-31T09:10:03.530Z,98105.69
2022-12-31T09:13:13.130Z,98104.84
2022-12-31T09:16:18.093Z,98111.97
2022-12-31T09:19:04.971Z,98111.03
2022-12-31T09:21:52.191Z,98106.03
2022-12-31T09:24:39.502Z,98113.25
2022-12-31T09:28:25.033Z,98120.88
2022-12-31T09:31:19.087Z,98113.22
2022-12-31T09:34:53.502Z,98125.78
2022-12-31T09:37:50.632Z,98122.53
2022-12-31T09:40:58.679Z,98119.56
2022-12-31T09:44:34.928Z,98116.59
2022-12-31T09:48:02.525Z,98103.84
2022-12-31T09:51:01.575Z,98110.22
2022-12-31T09:54:26.732Z,98102.81
2022-12-31T09:57:40.674Z,98101.22
2022-12-31T10:00:44.365Z,98105.31
2022-12-31T10:04:05.387Z,98096.84
2022-12-31T10:07:12.618Z,98107.22
2022-12-31T10:10:40.932Z,98103.22
2022-12-31T10:13:55.679Z,98109.41
2022-12-31T10:17:20.099Z,98129.88
2022-12-31T10:20:31.027Z,98121.31
2022-12-31T10:23:52.144Z,98118.19
2022-12-31T10:30:54.818Z,98106.16
2022-12-31T10:34:09.936Z,98109.59
2022-12-31T10:37:17.076Z,98102.69
2022-12-31T10:40:21.568Z,98105.63
2022-12-31T10:43:37.713Z,98105.28
2022-12-31T10:46:43.519Z,98101.22
2022-12-31T11:04:03.668Z,98087.38
2022-12-31T11:07:21.677Z,98095.22
2022-12-31T11:10:49.331Z,98077.75
2022-12-31T11:14:10.145Z,98079.63
2022-12-31T11:17:03.190Z,98072.38
2022-12-31T11:20:46.561Z,98070.25
2022-12-31T11:23:54.847Z,98058.31
2022-12-31T11:27:19.881Z,98054.31
2022-12-31T11:30:29.818Z,98054.94
2022-12-31T11:33:58.000Z,98051.16
2022-12-31T11:37:10.947Z,98045.16
2022-12-31T11:40:39.788Z,98051.94
2022-12-31T11:43:38.375Z,98051.28
2022-12-31T11:47:14.309Z,98045.16
2022-12-31T11:50:42.472Z,98043.41
2022-12-31T11:53:57.624Z,98031.75
2022-12-31T11:56:53.745Z,98026.38
2022-12-31T11:59:40.795Z,98027.16
2022-12-31T12:02:45.540Z,98022.00
2022-12-31T12:05:35.147Z,98021.44
2022-12-31T12:08:22.273Z,98026.19
2022-12-31T12:11:21.452Z,98014.41
2022-12-31T12:14:21.897Z,98012.47
2022-12-31T12:17:32.079Z,98012.13
2022-12-31T12:20:24.673Z,98010.19
2022-12-31T12:23:18.027Z,98012.19
2022-12-31T12:26:06.243Z,98011.22
2022-12-31T12:28:53.180Z,98020.47
2022-12-31T12:31:40.479Z,98021.91
2022-12-31T12:34:41.967Z,98019.50
2022-12-31T12:37:35.463Z,98022.63
2022-12-31T12:40:28.353Z,98025.31
2022-12-31T12:43:27.675Z,98024.53
2022-12-31T12:46:29.702Z,98025.09
2022-12-31T12:49:24.172Z,98023.97
2022-12-31T12:52:48.425Z,98016.13
2022-12-31T12:55:54.400Z,98002.84
2022-12-31T12:59:19.443Z,98009.59
2022-12-31T13:02:48.795Z,98008.69
2022-12-31T13:06:22.564Z,98007.03
2022-12-31T13:09:31.803Z,98009.44
2022-12-31T13:12:48.956Z,98007.09
2022-12-31T13:15:47.585Z,98005.97
2022-12-31T13:22:38.251Z,97998.19
2022-12-31T13:28:43.107Z,97988.81
2022-12-31T13:31:34.472Z,97989.38
2022-12-31T13:34:27.173Z,97997.38
2022-12-31T13:37:37.951Z,97988.84
2022-12-31T13:40:31.910Z,97992.34
2022-12-31T13:43:30.117Z,97985.06
2022-12-31T13:46:23.673Z,97983.81
2022-12-31T13:49:37.738Z,97992.00
2022-12-31T13:52:51.506Z,97999.63
2022-12-31T13:55:42.711Z,97995.59
2022-12-31T13:58:42.691Z,97997.94
2022-12-31T14:01:43.771Z,97979.94
2022-12-31T14:04:37.706Z,97978.16
2022-12-31T14:07:37.638Z,97980.53
2022-12-31T14:10:57.947Z,97972.34
2022-12-31T14:14:24.930Z,97975.31
2022-12-31T14:17:53.484Z,97978.41
2022-12-31T14:21:10.180Z,97967.88
2022-12-31T14:24:12.479Z,97973.50
2022-12-31T14:27:04.227Z,97988.59
2022-12-31T14:29:59.359Z,97984.59
2022-12-31T14:33:12.208Z,97990.22
2022-12-31T14:36:40.675Z,97989.63
2022-12-31T14:39:54.337Z,98013.19
2022-12-31T14:43:09.694Z,98013.84
2022-12-31T14:46:12.498Z,98010.75
2022-12-31T14:49:36.721Z,98011.94
2022-12-31T14:52:29.223Z,98015.50
2022-12-31T14:55:39.552Z,98013.56
2022-12-31T14:58:35.393Z,98016.25
2022-12-31T15:01:26.014Z,98022.56
2022-12-31T15:04:15.797Z,98017.47
2022-12-31T15:07:29.096Z,98009.63
2022-12-31T15:10:21.916Z,98014.16
2022-12-31T15:13:57.149Z,98017.19
2022-12-31T15:16:57.340Z,98015.25
2022-12-31T15:19:54.690Z,98011.22
2022-12-31T15:22:50.455Z,98004.66
2022-12-31T15:25:41.457Z,98012.81
2022-12-31T15:28:40.053Z,98025.75
2022-12-31T15:31:27.790Z,98024.97
2022-12-31T15:34:33.754Z,98027.81
2022-12-31T15:37:34.237Z,98037.81
2022-12-31T15:40:25.022Z,98027.75
2022-12-31T15:43:22.818Z,98038.66
2022-12-31T15:46:17.174Z,98027.31
2022-12-31T15:49:15.558Z,98023.03
2022-12-31T15:52:29.460Z,98032.59
2022-12-31T15:55:30.087Z,98021.13
2022-12-31T15:58:20.957Z,98032.03
2022-12-31T16:01:34.923Z,98028.34
2022-12-31T16:04:25.592Z,98022.50
2022-12-31T16:07:12.897Z,98040.63
2022-12-31T16:10:02.675Z,98038.22
2022-12-31T16:12:50.033Z,98037.78
2022-12-31T16:15:37.027Z,98046.78
2022-12-31T16:18:24.032Z,98056.94
2022-12-31T16:21:35.429Z,98055.81
2022-12-31T16:24:30.997Z,98059.81
2022-12-31T16:27:18.009Z,98061.47
2022-12-31T16:30:18.553Z,98065.19
2022-12-31T16:33:11.672Z,98061.84
2022-12-31T16:36:00.929Z,98060.91
2022-12-31T16:38:48.254Z,98060.16
2022-12-31T16:41:42.879Z,98058.56
2022-12-31T16:44:30.578Z,98053.97
2022-12-31T16:47:28.904Z,98055.81
2022-12-31T16:50:20.023Z,98053.22
2022-12-31T16:53:07.854Z,98050.81
2022-12-31T16:56:16.310Z,98048.09
2022-12-31T16:59:17.521Z,98047.84
2022-12-31T17:02:24.927Z,98053.59
2022-12-31T17:05:20.213Z,98052.88
2022-12-31T17:08:28.648Z,98053.59
2022-12-31T17:11:30.647Z,98048.47
2022-12-31T17:14:29.134Z,98048.25
2022-12-31T17:17:27.775Z,98058.22
2022-12-31T17:20:26.194Z,98047.66
2022-12-31T17:23:23.234Z,98033.84
2022-12-31T17:26:22.056Z,98039.84
2022-12-31T17:29:25.935Z,98043.59
2022-12-31T17:32:37.427Z,98047.78
2022-12-31T17:35:30.519Z,98051.13
2022-12-31T17:38:43.544Z,98048.41
2022-12-31T17:41:30.471Z,98050.38
2022-12-31T17:44:21.070Z,98064.00
2022-12-31T17:47:13.887Z,98059.38
2022-12-31T17:50:19.145Z,98049.44
2022-12-31T17:53:11.838Z,98054.25
2022-12-31T17:56:03.110Z,98066.41
2022-12-31T17:58:52.358Z,98070.16
2022-12-31T18:01:39.498Z,98066.31
2022-12-31T18:04:26.624Z,98069.75
2022-12-31T18:07:13.567Z,98077.69
2022-12-31T18:10:00.459Z,98069.03
2022-12-31T18:12:48.888Z,98067.44
2022-12-31T18:15:35.809Z,98070.81
2022-12-31T18:18:28.114Z,98066.22
2022-12-31T18:21:35.904Z,98069.66
2022-12-31T18:24:26.002Z,98079.81
2022-12-31T18:27:18.577Z,98076.78
2022-12-31T18:30:06.872Z,98067.16
2022-12-31T18:32:54.638Z,98085.22
2022-12-31T18:36:17.065Z,98079.28
2022-12-31T18:38:50.292Z,98070.91
2022-12-31T18:41:46.572Z,98067.47
2022-12-31T18:44:33.486Z,98072.38
2022-12-31T18:47:23.841Z,98061.19
2022-12-31T18:50:16.075Z,98064.34
2022-12-31T18:53:03.057Z,98066.53
2022-12-31T18:55:57.619Z,98077.00
2022-12-31T18:58:45.330Z,98072.28
2022-12-31T19:01:35.128Z,98063.19
2022-12-31T19:04:27.673Z,98057.03
2022-12-31T19:07:15.310Z,98047.50
2022-12-31T19:10:02.236Z,98055.78
2022-12-31T19:12:49.605Z,98058.28
2022-12-31T19:15:46.517Z,98053.88
2022-12-31T19:18:34.371Z,98053.56
2022-12-31T19:21:22.873Z,98053.56
2022-12-31T19:24:22.903Z,98057.31
2022-12-31T19:27:09.904Z,98061.91
2022-12-31T19:29:56.846Z,98054.31
2022-12-31T19:32:43.916Z,98052.63
2022-12-31T19:35:30.915Z,98054.06
2022-12-31T19:38:25.925Z,98043.94
2022-12-31T19:41:20.217Z,98043.44
2022-12-31T19:44:14.198Z,98041.66
2022-12-31T19:47:01.133Z,98033.72
2022-12-31T19:49:48.023Z,98026.09
2022-12-31T19:52:34.981Z,98028.09
2022-12-31T19:55:25.046Z,98029.13
2022-12-31T19:58:27.380Z,98022.31
2022-12-31T20:01:20.974Z,98021.78
2022-12-31T20:04:07.914Z,98019.38
2022-12-31T20:06:54.777Z,98009.78
2022-12-31T20:09:41.719Z,98001.31
2022-12-31T20:12:28.613Z,98015.13
2022-12-31T20:15:16.362Z,98020.03
2022-12-31T20:18:03.240Z,98035.38
2022-12-31T20:20:55.610Z,98031.28
2022-12-31T20:23:43.099Z,98031.09
2022-12-31T20:26:30.429Z,98035.38
2022-12-31T20:29:17.394Z,98034.13
2022-12-31T20:32:04.595Z,98043.00
2022-12-31T20:34:51.510Z,98047.72
2022-12-31T20:37:38.449Z,98062.53
2022-12-31T20:40:25.312Z,98065.34
2022-12-31T20:43:12.224Z,98065.59
2022-12-31T20:45:59.174Z,98064.66
2022-12-31T20:48:47.251Z,98067.38
2022-12-31T20:51:35.156Z,98062.72
2022-12-31T20:54:22.075Z,98066.69
2022-12-31T20:57:08.934Z,98060.44
2022-12-31T20:59:55.805Z,98055.41
2022-12-31T21:02:44.321Z,98061.81
2022-12-31T21:05:33.177Z,98058.13
2022-12-31T21:08:21.219Z,98050.94
2022-12-31T21:11:41.433Z,98063.03
2022-12-31T21:14:28.367Z,98054.38
2022-12-31T21:17:15.285Z,98067.44
2022-12-31T21:20:02.264Z,98058.78
2022-12-31T21:22:49.200Z,98055.34
2022-12-31T21:25:36.098Z,98060.69
2022-12-31T21:28:23.078Z,98058.31
2022-12-31T21:31:13.022Z,98060.81
2022-12-31T21:33:59.997Z,98062.81
2022-12-31T21:36:46.914Z,98067.28
2022-12-31T21:39:33.861Z,98063.09
2022-12-31T21:42:20.761Z,98062.88
2022-12-31T21:45:08.710Z,98053.50
2022-12-31T21:48:17.733Z,98055.69
2022-12-31T21:51:08.574Z,98043.78
2022-12-31T21:53:56.068Z,98043.72
2022-12-31T21:56:42.982Z,98037.63
2022-12-31T22:00:03.161Z,98048.06
2022-12-31T22:03:14.443Z,98045.88
2022-12-31T22:06:13.097Z,98044.94
2022-12-31T22:09:00.067Z,98040.72
2022-12-31T22:11:47.725Z,98054.09
2022-12-31T22:14:35.210Z,98039.34
2022-12-31T22:17:22.119Z,98034.97
2022-12-31T22:20:28.405Z,98043.41
2022-12-31T22:23:16.136Z,98043.84
2022-12-31T22:26:04.046Z,98058.34
2022-12-31T22:28:51.156Z,98065.25
2022-12-31T22:31:38.071Z,98057.84
2022-12-31T22:34:25.904Z,98051.97
2022-12-31T22:37:35.748Z,98045.22
2022-12-31T22:40:19.807Z,98044.25
2022-12-31T22:43:06.723Z,98047.94
2022-12-31T22:45:53.643Z,98044.03
2022-12-31T22:48:41.872Z,98051.03
2022-12-31T22:51:55.826Z,98044.63
2022-12-31T22:54:37.368Z,98045.78
2022-12-31T22:57:24.281Z,98044.63
2022-12-31T23:00:13.389Z,98041.25
2022-12-31T23:03:00.328Z,98047.69
2022-12-31T23:05:51.508Z,98046.47
2022-12-31T23:08:38.449Z,98044.78
2022-12-31T23:11:25.412Z,98046.47
2022-12-31T23:14:35.870Z,98053.41
2022-12-31T23:17:45.474Z,98051.13
2022-12-31T23:20:51.138Z,98047.69
2022-12-31T23:23:38.058Z,98056.06
2022-12-31T23:26:24.961Z,98056.25
2022-12-31T23:29:12.026Z,98066.50
2022-12-31T23:31:59.186Z,98065.53
2022-12-31T23:34:46.847Z,98074.41
2022-12-31T23:37:33.833Z,98064.50
2022-12-31T23:40:21.773Z,98067.88
2022-12-31T23:43:17.960Z,98061.44
2022-12-31T23:46:04.878Z,98066.34
2022-12-31T23:48:51.960Z,98075.00
2022-12-31T23:51:40.216Z,98069.44
2022-12-31T23:54:28.201Z,98074.09
2022-12-31T23:57:15.094Z,98078.16
